sensor_id;sensor_type;location;lat;lon;timestamp;pressure;altitude;pressure_sealevel;temperature;humidity
64644;BME280;51056;50.330;7.914;2023-08-06T00:00:09;99649.28;;;15.67;91.27
64644;BME280;51056;50.330;7.914;2023-08-06T00:03:12;99654.09;;;15.62;91.93
64644;BME280;51056;50.330;7.914;2023-08-06T00:06:15;99650.75;;;15.59;91.98
64644;BME280;51056;50.330;7.914;2023-08-06T00:09:19;99647.28;;;15.59;92.51
64644;BME280;51056;50.330;7.914;2023-08-06T00:12:22;99634.16;;;15.69;93.28
64644;BME280;51056;50.330;7.914;2023-08-06T00:15:25;99622.38;;;15.73;93.16
64644;BME280;51056;50.330;7.914;2023-08-06T00:18:29;99620.72;;;15.72;93.09
64644;BME280;51056;50.330;7.914;2023-08-06T00:21:32;99615.44;;;15.72;93.47
64644;BME280;51056;50.330;7.914;2023-08-06T00:24:35;99604.06;;;15.71;93.41
64644;BME280;51056;50.330;7.914;2023-08-06T00:27:39;99603.25;;;15.71;93.19
64644;BME280;51056;50.330;7.914;2023-08-06T00:30:42;99595.84;;;15.65;93.79
64644;BME280;51056;50.330;7.914;2023-08-06T00:33:46;99603.59;;;15.66;93.58
64644;BME280;51056;50.330;7.914;2023-08-06T00:36:49;99605.25;;;15.57;93.92
64644;BME280;51056;50.330;7.914;2023-08-06T00:39:52;99590.28;;;15.58;93.87
64644;BME280;51056;50.330;7.914;2023-08-06T00:42:56;99590.28;;;15.58;93.50
64644;BME280;51056;50.330;7.914;2023-08-06T00:45:59;99588.84;;;15.44;94.09
64644;BME280;51056;50.330;7.914;2023-08-06T00:49:04;99585.00;;;15.48;93.46
64644;BME280;51056;50.330;7.914;2023-08-06T00:52:08;99580.66;;;15.47;93.04
64644;BME280;51056;50.330;7.914;2023-08-06T00:55:13;99578.19;;;15.46;93.17
64644;BME280;51056;50.330;7.914;2023-08-06T00:58:18;99571.63;;;15.40;93.27
64644;BME280;51056;50.330;7.914;2023-08-06T01:01:22;99569.97;;;15.29;93.24
64644;BME280;51056;50.330;7.914;2023-08-06T01:04:25;99567.16;;;15.31;93.43
64644;BME280;51056;50.330;7.914;2023-08-06T01:08:08;99569.97;;;15.29;93.04
64644;BME280;51056;50.330;7.914;2023-08-06T01:11:39;99564.53;;;15.31;93.03
64644;BME280;51056;50.330;7.914;2023-08-06T01:18:09;99573.94;;;15.24;93.03
64644;BME280;51056;50.330;7.914;2023-08-06T01:21:13;99580.47;;;15.20;92.77
64644;BME280;51056;50.330;7.914;2023-08-06T01:24:16;99573.50;;;15.19;93.21
64644;BME280;51056;50.330;7.914;2023-08-06T01:27:33;99571.00;;;15.17;93.47
64644;BME280;51056;50.330;7.914;2023-08-06T01:30:41;99577.09;;;15.18;93.64
64644;BME280;51056;50.330;7.914;2023-08-06T01:33:46;99576.84;;;15.21;93.86
64644;BME280;51056;50.330;7.914;2023-08-06T01:36:52;99573.38;;;15.20;93.56
64644;BME280;51056;50.330;7.914;2023-08-06T01:39:56;99578.50;;;15.22;93.86
64644;BME280;51056;50.330;7.914;2023-08-06T01:42:59;99570.59;;;15.22;93.93
64644;BME280;51056;50.330;7.914;2023-08-06T01:46:02;99576.28;;;15.17;94.21
64644;BME280;51056;50.330;7.914;2023-08-06T01:49:06;99569.66;;;15.23;94.19
64644;BME280;51056;50.330;7.914;2023-08-06T01:52:09;99573.84;;;15.25;94.39
64644;BME280;51056;50.330;7.914;2023-08-06T01:55:12;99571.88;;;15.27;94.14
64644;BME280;51056;50.330;7.914;2023-08-06T01:58:16;99560.50;;;15.27;94.27
64644;BME280;51056;50.330;7.914;2023-08-06T02:01:19;99557.75;;;15.28;94.66
64644;BME280;51056;50.330;7.914;2023-08-06T02:04:22;99542.06;;;15.27;94.40
64644;BME280;51056;50.330;7.914;2023-08-06T02:07:25;99540.28;;;15.27;94.56
64644;BME280;51056;50.330;7.914;2023-08-06T02:10:29;99542.78;;;15.29;94.67
64644;BME280;51056;50.330;7.914;2023-08-06T02:13:32;99534.44;;;15.24;94.94
64644;BME280;51056;50.330;7.914;2023-08-06T02:16:35;99542.50;;;15.22;95.40
64644;BME280;51056;50.330;7.914;2023-08-06T02:19:39;99536.09;;;15.25;94.64
64644;BME280;51056;50.330;7.914;2023-08-06T02:22:43;99541.38;;;15.25;94.67
64644;BME280;51056;50.330;7.914;2023-08-06T02:25:46;99537.78;;;15.26;95.04
64644;BME280;51056;50.330;7.914;2023-08-06T02:28:49;99532.25;;;15.29;95.01
64644;BME280;51056;50.330;7.914;2023-08-06T02:31:52;99526.00;;;15.30;94.74
64644;BME280;51056;50.330;7.914;2023-08-06T02:34:56;99522.66;;;15.28;94.59
64644;BME280;51056;50.330;7.914;2023-08-06T02:37:59;99522.81;;;15.26;94.97
64644;BME280;51056;50.330;7.914;2023-08-06T02:41:03;99518.91;;;15.21;95.71
64644;BME280;51056;50.330;7.914;2023-08-06T02:44:06;99511.84;;;15.21;95.34
64644;BME280;51056;50.330;7.914;2023-08-06T02:47:09;99507.56;;;15.20;95.85
64644;BME280;51056;50.330;7.914;2023-08-06T02:50:13;99507.41;;;15.22;95.77
64644;BME280;51056;50.330;7.914;2023-08-06T02:53:16;99508.25;;;15.22;95.42
64644;BME280;51056;50.330;7.914;2023-08-06T02:56:20;99498.69;;;15.21;95.42
64644;BME280;51056;50.330;7.914;2023-08-06T02:59:36;99496.19;;;15.20;95.35
64644;BME280;51056;50.330;7.914;2023-08-06T03:02:46;99490.94;;;15.20;95.64
64644;BME280;51056;50.330;7.914;2023-08-06T03:06:12;99483.97;;;15.19;95.43
64644;BME280;51056;50.330;7.914;2023-08-06T03:09:21;99485.94;;;15.17;95.57
64644;BME280;51056;50.330;7.914;2023-08-06T03:12:25;99482.31;;;15.18;95.43
64644;BME280;51056;50.330;7.914;2023-08-06T03:15:29;99482.31;;;15.18;95.22
64644;BME280;51056;50.330;7.914;2023-08-06T03:18:33;99485.94;;;15.17;95.72
64644;BME280;51056;50.330;7.914;2023-08-06T03:21:39;99483.28;;;15.17;95.41
64644;BME280;51056;50.330;7.914;2023-08-06T03:24:42;99473.75;;;15.16;94.99
64644;BME280;51056;50.330;7.914;2023-08-06T03:27:47;99469.31;;;15.16;95.63
64644;BME280;51056;50.330;7.914;2023-08-06T03:31:02;99465.69;;;15.17;95.25
64644;BME280;51056;50.330;7.914;2023-08-06T03:34:38;99460.28;;;15.19;95.26
64644;BME280;51056;50.330;7.914;2023-08-06T03:37:41;99459.31;;;15.20;95.41
64644;BME280;51056;50.330;7.914;2023-08-06T03:40:46;99464.16;;;15.15;95.87
64644;BME280;51056;50.330;7.914;2023-08-06T03:43:50;99461.97;;;15.20;95.85
64644;BME280;51056;50.330;7.914;2023-08-06T03:46:59;99457.38;;;15.22;95.96
64644;BME280;51056;50.330;7.914;2023-08-06T03:50:03;99453.78;;;15.23;96.09
64644;BME280;51056;50.330;7.914;2023-08-06T03:53:07;99448.25;;;15.26;96.01
64644;BME280;51056;50.330;7.914;2023-08-06T03:56:10;99442.97;;;15.26;95.75
64644;BME280;51056;50.330;7.914;2023-08-06T03:59:13;99443.94;;;15.25;95.90
64644;BME280;51056;50.330;7.914;2023-08-06T04:02:17;99442.97;;;15.26;96.04
64644;BME280;51056;50.330;7.914;2023-08-06T04:05:21;99446.28;;;15.28;95.86
64644;BME280;51056;50.330;7.914;2023-08-06T04:08:27;99448.25;;;15.26;96.26
64644;BME280;51056;50.330;7.914;2023-08-06T04:11:30;99443.81;;;15.26;96.01
64644;BME280;51056;50.330;7.914;2023-08-06T04:14:33;99448.25;;;15.26;96.20
64644;BME280;51056;50.330;7.914;2023-08-06T04:17:36;99450.19;;;15.24;96.02
64644;BME280;51056;50.330;7.914;2023-08-06T04:20:44;99452.69;;;15.25;96.58
64644;BME280;51056;50.330;7.914;2023-08-06T04:23:48;99449.91;;;15.27;96.47
64644;BME280;51056;50.330;7.914;2023-08-06T04:26:52;99441.03;;;15.28;96.43
64644;BME280;51056;50.330;7.914;2023-08-06T04:29:55;99449.63;;;15.30;96.67
64644;BME280;51056;50.330;7.914;2023-08-06T04:32:59;99448.25;;;15.26;96.97
64644;BME280;51056;50.330;7.914;2023-08-06T04:36:03;99447.16;;;15.28;96.93
64644;BME280;51056;50.330;7.914;2023-08-06T04:39:06;99444.38;;;15.30;97.10
64644;BME280;51056;50.330;7.914;2023-08-06T04:42:10;99447.00;;;15.30;96.93
64644;BME280;51056;50.330;7.914;2023-08-06T04:45:13;99440.47;;;15.34;97.45
64644;BME280;51056;50.330;7.914;2023-08-06T04:48:17;99440.22;;;15.37;97.74
64644;BME280;51056;50.330;7.914;2023-08-06T04:51:20;99434.00;;;15.38;97.45
64644;BME280;51056;50.330;7.914;2023-08-06T04:54:23;99449.66;;;15.40;97.95
64644;BME280;51056;50.330;7.914;2023-08-06T04:57:26;99442.28;;;15.43;97.76
64644;BME280;51056;50.330;7.914;2023-08-06T05:00:30;99440.50;;;15.44;98.10
64644;BME280;51056;50.330;7.914;2023-08-06T05:03:33;99434.13;;;15.46;98.10
64644;BME280;51056;50.330;7.914;2023-08-06T05:06:36;99437.19;;;15.51;98.11
64644;BME280;51056;50.330;7.914;2023-08-06T05:09:42;99435.22;;;15.53;97.96
64644;BME280;51056;50.330;7.914;2023-08-06T05:12:45;99434.94;;;15.56;98.21
64644;BME280;51056;50.330;7.914;2023-08-06T05:15:49;99440.50;;;15.53;98.88
64644;BME280;51056;50.330;7.914;2023-08-06T05:18:52;99450.75;;;15.56;99.11
64644;BME280;51056;50.330;7.914;2023-08-06T05:21:55;99439.00;;;15.61;98.90
64644;BME280;51056;50.330;7.914;2023-08-06T05:24:59;99435.22;;;15.63;98.50
64644;BME280;51056;50.330;7.914;2023-08-06T05:28:02;99439.03;;;15.70;98.14
64644;BME280;51056;50.330;7.914;2023-08-06T05:31:06;99440.25;;;15.76;98.20
64644;BME280;51056;50.330;7.914;2023-08-06T05:34:10;99447.19;;;15.77;98.08
64644;BME280;51056;50.330;7.914;2023-08-06T05:37:13;99438.31;;;15.78;98.09
64644;BME280;51056;50.330;7.914;2023-08-06T05:40:21;99441.94;;;15.77;98.36
64644;BME280;51056;50.330;7.914;2023-08-06T05:43:25;99441.50;;;15.81;98.47
64644;BME280;51056;50.330;7.914;2023-08-06T05:46:29;99444.94;;;15.82;98.28
64644;BME280;51056;50.330;7.914;2023-08-06T05:49:32;99445.81;;;15.83;98.58
64644;BME280;51056;50.330;7.914;2023-08-06T05:52:35;99439.41;;;15.85;98.87
64644;BME280;51056;50.330;7.914;2023-08-06T05:55:39;99442.75;;;15.87;99.07
64644;BME280;51056;50.330;7.914;2023-08-06T05:58:43;99448.72;;;15.89;99.21
64644;BME280;51056;50.330;7.914;2023-08-06T06:01:46;99452.03;;;15.91;99.05
64644;BME280;51056;50.330;7.914;2023-08-06T06:04:49;99448.28;;;15.84;99.93
64644;BME280;51056;50.330;7.914;2023-08-06T06:07:53;99446.09;;;15.89;99.80
64644;BME280;51056;50.330;7.914;2023-08-06T06:28:30;99457.19;;;15.83;97.68
64644;BME280;51056;50.330;7.914;2023-08-06T06:31:33;99463.56;;;15.90;97.98
64644;BME280;51056;50.330;7.914;2023-08-06T06:34:37;99455.22;;;15.95;97.80
64644;BME280;51056;50.330;7.914;2023-08-06T06:37:40;99454.13;;;15.88;96.82
64644;BME280;51056;50.330;7.914;2023-08-06T06:40:44;99468.56;;;15.84;97.37
64644;BME280;51056;50.330;7.914;2023-08-06T06:43:47;99467.19;;;15.70;99.33
64644;BME280;51056;50.330;7.914;2023-08-06T06:46:50;99460.78;;;15.82;99.26
64644;BME280;51056;50.330;7.914;2023-08-06T06:49:54;99458.38;;;15.98;99.09
64644;BME280;51056;50.330;7.914;2023-08-06T06:52:57;99462.25;;;16.14;99.03
64644;BME280;51056;50.330;7.914;2023-08-06T06:56:04;99463.50;;;16.19;97.87
64644;BME280;51056;50.330;7.914;2023-08-06T06:59:08;99461.38;;;16.33;96.67
64644;BME280;51056;50.330;7.914;2023-08-06T07:02:12;99462.34;;;16.41;96.72
64644;BME280;51056;50.330;7.914;2023-08-06T07:05:16;99460.41;;;16.43;95.31
64644;BME280;51056;50.330;7.914;2023-08-06T07:08:19;99461.06;;;16.45;95.42
64644;BME280;51056;50.330;7.914;2023-08-06T07:11:23;99461.78;;;16.47;94.03
64644;BME280;51056;50.330;7.914;2023-08-06T07:14:26;99454.47;;;16.32;94.87
64644;BME280;51056;50.330;7.914;2023-08-06T07:17:29;99458.06;;;16.40;95.13
64644;BME280;51056;50.330;7.914;2023-08-06T07:20:33;99455.38;;;16.50;94.84
64644;BME280;51056;50.330;7.914;2023-08-06T07:23:39;99453.53;;;16.60;93.44
64644;BME280;51056;50.330;7.914;2023-08-06T07:26:42;99458.72;;;16.42;94.48
64644;BME280;51056;50.330;7.914;2023-08-06T07:29:46;99455.63;;;16.57;94.12
64644;BME280;51056;50.330;7.914;2023-08-06T07:32:49;99457.78;;;16.71;92.50
64644;BME280;51056;50.330;7.914;2023-08-06T07:35:52;99462.97;;;16.63;92.42
64644;BME280;51056;50.330;7.914;2023-08-06T07:38:56;99457.94;;;16.79;92.08
64644;BME280;51056;50.330;7.914;2023-08-06T07:41:59;99469.81;;;16.46;92.04
64644;BME280;51056;50.330;7.914;2023-08-06T07:45:06;99462.44;;;16.49;92.64
64644;BME280;51056;50.330;7.914;2023-08-06T07:48:10;99472.03;;;16.50;93.43
64644;BME280;51056;50.330;7.914;2023-08-06T07:51:13;99466.31;;;16.55;93.18
64644;BME280;51056;50.330;7.914;2023-08-06T07:54:17;99463.88;;;16.71;93.40
64644;BME280;51056;50.330;7.914;2023-08-06T07:57:20;99469.03;;;16.73;92.77
64644;BME280;51056;50.330;7.914;2023-08-06T08:00:24;99469.13;;;16.54;90.04
64644;BME280;51056;50.330;7.914;2023-08-06T08:03:27;99463.44;;;16.48;91.83
64644;BME280;51056;50.330;7.914;2023-08-06T08:06:30;99470.31;;;16.69;93.37
64644;BME280;51056;50.330;7.914;2023-08-06T08:09:34;99460.72;;;16.68;89.11
64644;BME280;51056;50.330;7.914;2023-08-06T08:12:37;99463.34;;;16.40;89.95
64644;BME280;51056;50.330;7.914;2023-08-06T08:15:41;99454.19;;;16.25;90.86
64644;BME280;51056;50.330;7.914;2023-08-06T08:18:44;99453.09;;;16.27;90.17
64644;BME280;51056;50.330;7.914;2023-08-06T08:21:48;99457.13;;;16.22;91.36
64644;BME280;51056;50.330;7.914;2023-08-06T08:25:17;99455.69;;;16.37;89.30
64644;BME280;51056;50.330;7.914;2023-08-06T08:28:21;99448.16;;;16.42;88.50
64644;BME280;51056;50.330;7.914;2023-08-06T08:31:24;99459.06;;;16.67;89.47
64644;BME280;51056;50.330;7.914;2023-08-06T08:39:37;99453.28;;;16.91;88.18
64644;BME280;51056;50.330;7.914;2023-08-06T08:42:40;99438.75;;;17.05;86.92
64644;BME280;51056;50.330;7.914;2023-08-06T08:45:46;99451.16;;;17.22;86.64
64644;BME280;51056;50.330;7.914;2023-08-06T08:48:54;99445.81;;;17.32;84.64
64644;BME280;51056;50.330;7.914;2023-08-06T08:52:03;99443.91;;;17.24;83.35
64644;BME280;51056;50.330;7.914;2023-08-06T08:55:10;99443.56;;;17.37;82.58
64644;BME280;51056;50.330;7.914;2023-08-06T08:58:14;99439.09;;;17.37;80.06
64644;BME280;51056;50.330;7.914;2023-08-06T09:01:20;99443.00;;;17.51;79.66
64644;BME280;51056;50.330;7.914;2023-08-06T09:04:23;99449.59;;;17.47;79.27
64644;BME280;51056;50.330;7.914;2023-08-06T09:07:27;99446.34;;;17.35;79.02
64644;BME280;51056;50.330;7.914;2023-08-06T09:10:32;99454.78;;;17.21;79.72
64644;BME280;51056;50.330;7.914;2023-08-06T09:13:37;99463.13;;;17.16;78.30
64644;BME280;51056;50.330;7.914;2023-08-06T09:16:41;99457.47;;;17.39;80.32
64644;BME280;51056;50.330;7.914;2023-08-06T09:19:46;99465.78;;;17.80;78.23
64644;BME280;51056;50.330;7.914;2023-08-06T09:22:53;99468.03;;;17.75;75.61
64644;BME280;51056;50.330;7.914;2023-08-06T09:25:57;99459.03;;;17.50;74.93
64644;BME280;51056;50.330;7.914;2023-08-06T09:29:01;99456.09;;;17.53;76.20
64644;BME280;51056;50.330;7.914;2023-08-06T09:32:04;99459.13;;;17.40;77.00
64644;BME280;51056;50.330;7.914;2023-08-06T09:35:16;99454.19;;;17.27;77.61
64644;BME280;51056;50.330;7.914;2023-08-06T09:38:20;99455.47;;;17.23;77.83
64644;BME280;51056;50.330;7.914;2023-08-06T09:41:26;99457.75;;;17.54;78.68
64644;BME280;51056;50.330;7.914;2023-08-06T09:44:32;99447.88;;;17.92;76.11
64644;BME280;51056;50.330;7.914;2023-08-06T09:47:36;99437.28;;;18.18;75.21
64644;BME280;51056;50.330;7.914;2023-08-06T09:50:39;99440.88;;;18.34;74.73
64644;BME280;51056;50.330;7.914;2023-08-06T09:53:48;99441.66;;;18.27;73.88
64644;BME280;51056;50.330;7.914;2023-08-06T09:56:54;99455.19;;;18.24;73.73
64644;BME280;51056;50.330;7.914;2023-08-06T10:00:01;99459.88;;;18.04;74.77
64644;BME280;51056;50.330;7.914;2023-08-06T10:03:06;99452.59;;;18.06;76.87
64644;BME280;51056;50.330;7.914;2023-08-06T10:06:10;99459.69;;;18.05;75.77
64644;BME280;51056;50.330;7.914;2023-08-06T10:09:14;99459.91;;;18.12;75.96
64644;BME280;51056;50.330;7.914;2023-08-06T10:12:18;99460.66;;;18.22;76.60
64644;BME280;51056;50.330;7.914;2023-08-06T10:15:26;99466.56;;;18.16;74.78
64644;BME280;51056;50.330;7.914;2023-08-06T10:18:31;99464.88;;;18.15;74.88
64644;BME280;51056;50.330;7.914;2023-08-06T10:21:38;99462.19;;;18.07;74.06
64644;BME280;51056;50.330;7.914;2023-08-06T10:27:53;99470.28;;;17.34;72.56
64644;BME280;51056;50.330;7.914;2023-08-06T10:30:58;99483.59;;;17.14;74.81
64644;BME280;51056;50.330;7.914;2023-08-06T10:37:49;99498.78;;;16.65;79.59
64644;BME280;51056;50.330;7.914;2023-08-06T10:44:06;99522.13;;;16.70;81.34
64644;BME280;51056;50.330;7.914;2023-08-06T10:47:28;99518.88;;;16.29;83.88
64644;BME280;51056;50.330;7.914;2023-08-06T10:50:32;99533.31;;;16.35;86.02
64644;BME280;51056;50.330;7.914;2023-08-06T10:53:36;99544.28;;;16.30;86.30
64644;BME280;51056;50.330;7.914;2023-08-06T10:56:40;99560.94;;;16.01;85.82
64644;BME280;51056;50.330;7.914;2023-08-06T10:59:45;99564.81;;;15.68;89.34
64644;BME280;51056;50.330;7.914;2023-08-06T11:02:48;99559.13;;;15.73;89.24
64644;BME280;51056;50.330;7.914;2023-08-06T11:05:52;99571.38;;;15.43;90.25
64644;BME280;51056;50.330;7.914;2023-08-06T11:08:56;99588.31;;;15.50;91.32
64644;BME280;51056;50.330;7.914;2023-08-06T11:11:59;99581.34;;;15.40;90.75
64644;BME280;51056;50.330;7.914;2023-08-06T11:15:03;99594.19;;;15.64;91.46
64644;BME280;51056;50.330;7.914;2023-08-06T11:18:08;99608.56;;;15.50;89.16
64644;BME280;51056;50.330;7.914;2023-08-06T11:21:12;99612.72;;;15.52;88.73
64644;BME280;51056;50.330;7.914;2023-08-06T11:24:15;99613.09;;;15.38;86.12
64644;BME280;51056;50.330;7.914;2023-08-06T11:27:19;99614.38;;;15.53;86.58
64644;BME280;51056;50.330;7.914;2023-08-06T11:30:23;99623.41;;;15.20;85.90
64644;BME280;51056;50.330;7.914;2023-08-06T11:33:27;99638.53;;;15.28;87.05
64644;BME280;51056;50.330;7.914;2023-08-06T11:36:32;99645.63;;;15.27;85.46
64644;BME280;51056;50.330;7.914;2023-08-06T11:39:37;99636.13;;;15.15;85.01
64644;BME280;51056;50.330;7.914;2023-08-06T11:42:40;99637.69;;;15.18;84.45
64644;BME280;51056;50.330;7.914;2023-08-06T11:45:45;99657.28;;;15.34;85.23
64644;BME280;51056;50.330;7.914;2023-08-06T11:49:45;99652.50;;;15.19;84.03
64644;BME280;51056;50.330;7.914;2023-08-06T11:52:59;99659.03;;;15.24;83.03
64644;BME280;51056;50.330;7.914;2023-08-06T11:56:03;99659.25;;;15.32;82.73
64644;BME280;51056;50.330;7.914;2023-08-06T11:59:06;99673.44;;;15.41;82.12
64644;BME280;51056;50.330;7.914;2023-08-06T12:02:11;99667.25;;;15.31;82.86
64644;BME280;51056;50.330;7.914;2023-08-06T12:05:15;99669.16;;;15.19;83.55
64644;BME280;51056;50.330;7.914;2023-08-06T12:08:19;99689.38;;;15.19;82.07
64644;BME280;51056;50.330;7.914;2023-08-06T12:11:23;99682.38;;;15.29;82.07
64644;BME280;51056;50.330;7.914;2023-08-06T12:14:27;99685.06;;;15.39;81.68
64644;BME280;51056;50.330;7.914;2023-08-06T12:17:30;99676.44;;;15.37;81.38
64644;BME280;51056;50.330;7.914;2023-08-06T12:20:34;99697.97;;;15.21;81.60
64644;BME280;51056;50.330;7.914;2023-08-06T12:23:38;99709.75;;;15.47;83.37
64644;BME280;51056;50.330;7.914;2023-08-06T12:26:43;99698.59;;;15.34;82.92
64644;BME280;51056;50.330;7.914;2023-08-06T12:29:48;99706.69;;;15.42;83.35
64644;BME280;51056;50.330;7.914;2023-08-06T12:32:51;99700.81;;;15.29;83.59
64644;BME280;51056;50.330;7.914;2023-08-06T12:35:55;99714.25;;;15.56;84.31
64644;BME280;51056;50.330;7.914;2023-08-06T12:39:01;99718.91;;;15.43;84.83
64644;BME280;51056;50.330;7.914;2023-08-06T12:42:06;99726.31;;;15.28;85.33
64644;BME280;51056;50.330;7.914;2023-08-06T12:45:10;99723.81;;;15.27;86.58
64644;BME280;51056;50.330;7.914;2023-08-06T12:48:15;99721.94;;;15.39;86.43
64644;BME280;51056;50.330;7.914;2023-08-06T12:51:21;99739.81;;;15.35;84.66
64644;BME280;51056;50.330;7.914;2023-08-06T12:54:26;99735.53;;;15.44;84.76
64644;BME280;51056;50.330;7.914;2023-08-06T12:57:33;99740.44;;;15.48;85.65
64644;BME280;51056;50.330;7.914;2023-08-06T13:00:38;99746.13;;;15.53;84.07
64644;BME280;51056;50.330;7.914;2023-08-06T13:03:41;99753.34;;;15.51;84.66
64644;BME280;51056;50.330;7.914;2023-08-06T13:06:47;99753.16;;;15.43;85.05
64644;BME280;51056;50.330;7.914;2023-08-06T13:09:51;99756.84;;;15.62;86.25
64644;BME280;51056;50.330;7.914;2023-08-06T13:12:54;99764.81;;;15.50;84.99
64644;BME280;51056;50.330;7.914;2023-08-06T13:15:58;99759.44;;;15.52;86.45
64644;BME280;51056;50.330;7.914;2023-08-06T13:19:01;99763.47;;;15.56;87.05
64644;BME280;51056;50.330;7.914;2023-08-06T13:22:05;99779.22;;;15.46;86.32
64644;BME280;51056;50.330;7.914;2023-08-06T13:25:12;99777.03;;;15.30;87.06
64644;BME280;51056;50.330;7.914;2023-08-06T13:28:17;99767.34;;;15.31;87.27
64644;BME280;51056;50.330;7.914;2023-08-06T13:31:22;99780.84;;;15.17;88.33
64644;BME280;51056;50.330;7.914;2023-08-06T13:34:25;99772.72;;;15.08;89.16
64644;BME280;51056;50.330;7.914;2023-08-06T13:37:30;99772.56;;;15.42;89.31
64644;BME280;51056;50.330;7.914;2023-08-06T13:40:35;99780.56;;;15.62;87.47
64644;BME280;51056;50.330;7.914;2023-08-06T13:43:39;99788.28;;;15.53;86.79
64644;BME280;51056;50.330;7.914;2023-08-06T13:46:43;99780.56;;;15.62;86.59
64644;BME280;51056;50.330;7.914;2023-08-06T13:49:46;99791.09;;;15.62;86.76
64644;BME280;51056;50.330;7.914;2023-08-06T13:52:50;99786.63;;;15.52;86.02
64644;BME280;51056;50.330;7.914;2023-08-06T13:56:05;99782.44;;;15.50;86.91
64644;BME280;51056;50.330;7.914;2023-08-06T13:59:14;99788.06;;;15.66;86.92
64644;BME280;51056;50.330;7.914;2023-08-06T14:02:18;99785.59;;;15.65;86.67
64644;BME280;51056;50.330;7.914;2023-08-06T14:05:21;99785.69;;;15.63;86.92
64644;BME280;51056;50.330;7.914;2023-08-06T14:08:25;99798.38;;;15.48;86.62
64644;BME280;51056;50.330;7.914;2023-08-06T14:11:29;99797.16;;;15.52;87.00
64644;BME280;51056;50.330;7.914;2023-08-06T14:14:35;99797.41;;;15.49;87.95
64644;BME280;51056;50.330;7.914;2023-08-06T14:17:40;99810.28;;;15.64;88.00
64644;BME280;51056;50.330;7.914;2023-08-06T14:20:44;99810.63;;;15.70;88.02
64644;BME280;51056;50.330;7.914;2023-08-06T14:23:47;99810.53;;;15.61;88.27
64644;BME280;51056;50.330;7.914;2023-08-06T14:26:51;99819.69;;;15.66;89.16
64644;BME280;51056;50.330;7.914;2023-08-06T14:29:54;99827.00;;;15.74;88.89
64644;BME280;51056;50.330;7.914;2023-08-06T14:32:57;99840.19;;;15.74;87.40
64644;BME280;51056;50.330;7.914;2023-08-06T14:36:03;99842.41;;;15.57;85.65
64644;BME280;51056;50.330;7.914;2023-08-06T14:39:07;99845.34;;;15.43;85.03
64644;BME280;51056;50.330;7.914;2023-08-06T14:42:10;99850.88;;;15.40;85.31
64644;BME280;51056;50.330;7.914;2023-08-06T14:45:14;99845.59;;;15.40;85.52
64644;BME280;51056;50.330;7.914;2023-08-06T14:48:17;99851.88;;;15.28;83.45
64644;BME280;51056;50.330;7.914;2023-08-06T14:51:20;99852.63;;;15.19;83.29
64644;BME280;51056;50.330;7.914;2023-08-06T14:54:25;99857.56;;;15.12;84.15
64644;BME280;51056;50.330;7.914;2023-08-06T14:57:31;99854.00;;;15.13;83.63
64644;BME280;51056;50.330;7.914;2023-08-06T15:00:34;99863.88;;;15.21;84.27
64644;BME280;51056;50.330;7.914;2023-08-06T15:03:39;99869.38;;;15.29;83.42
64644;BME280;51056;50.330;7.914;2023-08-06T15:06:42;99874.84;;;15.37;83.43
64644;BME280;51056;50.330;7.914;2023-08-06T15:09:46;99870.78;;;15.33;83.09
64644;BME280;51056;50.330;7.914;2023-08-06T15:12:49;99883.56;;;15.38;83.17
64644;BME280;51056;50.330;7.914;2023-08-06T15:15:52;99882.03;;;15.56;84.83
64644;BME280;51056;50.330;7.914;2023-08-06T15:18:56;99882.88;;;15.56;82.94
64644;BME280;51056;50.330;7.914;2023-08-06T15:21:59;99879.41;;;15.56;81.88
64644;BME280;51056;50.330;7.914;2023-08-06T15:25:03;99888.88;;;15.58;82.67
64644;BME280;51056;50.330;7.914;2023-08-06T15:28:07;99882.63;;;15.59;82.87
64644;BME280;51056;50.330;7.914;2023-08-06T15:31:10;99900.06;;;15.51;83.04
64644;BME280;51056;50.330;7.914;2023-08-06T15:34:14;99900.56;;;15.45;83.17
64644;BME280;51056;50.330;7.914;2023-08-06T15:37:17;99893.22;;;15.48;83.63
64644;BME280;51056;50.330;7.914;2023-08-06T15:40:21;99897.28;;;15.52;84.31
64644;BME280;51056;50.330;7.914;2023-08-06T15:43:26;99899.41;;;15.58;84.29
64644;BME280;51056;50.330;7.914;2023-08-06T15:46:30;99900.38;;;15.57;84.22
64644;BME280;51056;50.330;7.914;2023-08-06T15:49:33;99907.81;;;15.52;84.43
64644;BME280;51056;50.330;7.914;2023-08-06T15:52:36;99907.41;;;15.36;85.78
64644;BME280;51056;50.330;7.914;2023-08-06T15:55:40;99905.50;;;15.38;86.44
64644;BME280;51056;50.330;7.914;2023-08-06T15:58:43;99913.72;;;15.45;86.61
64644;BME280;51056;50.330;7.914;2023-08-06T16:01:46;99913.59;;;15.46;86.35
64644;BME280;51056;50.330;7.914;2023-08-06T16:04:50;99912.88;;;15.44;86.70
64644;BME280;51056;50.330;7.914;2023-08-06T16:07:54;99918.06;;;15.34;86.46
64644;BME280;51056;50.330;7.914;2023-08-06T16:10:58;99922.97;;;15.39;87.28
64644;BME280;51056;50.330;7.914;2023-08-06T16:14:01;99916.91;;;15.27;86.02
64644;BME280;51056;50.330;7.914;2023-08-06T16:17:05;99923.31;;;15.34;88.40
64644;BME280;51056;50.330;7.914;2023-08-06T16:20:09;99934.72;;;15.35;86.71
64644;BME280;51056;50.330;7.914;2023-08-06T16:23:23;99932.28;;;15.43;86.61
64644;BME280;51056;50.330;7.914;2023-08-06T16:26:27;99934.09;;;15.43;86.20
64644;BME280;51056;50.330;7.914;2023-08-06T16:29:31;99937.81;;;15.40;86.36
64644;BME280;51056;50.330;7.914;2023-08-06T16:32:34;99949.09;;;15.31;87.17
64644;BME280;51056;50.330;7.914;2023-08-06T16:35:39;99953.91;;;15.26;88.08
64644;BME280;51056;50.330;7.914;2023-08-06T16:38:44;99951.22;;;15.37;88.49
64644;BME280;51056;50.330;7.914;2023-08-06T16:41:48;99947.09;;;15.23;87.46
64644;BME280;51056;50.330;7.914;2023-08-06T16:45:19;99952.47;;;15.22;88.26
64644;BME280;51056;50.330;7.914;2023-08-06T16:48:26;99959.91;;;15.17;88.08
64644;BME280;51056;50.330;7.914;2023-08-06T16:51:31;99963.75;;;15.13;88.91
64644;BME280;51056;50.330;7.914;2023-08-06T16:54:35;99967.09;;;15.15;89.35